sensor_id;sensor_type;location;lat;lon;timestamp;noise_LAeq;noise_LA_min;noise_LA_max;noise_LA01;noise_LA95
58303;Laerm;44109;52.398;7.024;2023-07-13T00:02:25;47.03;32.07;57.18;;
58303;Laerm;44109;52.398;7.024;2023-07-13T00:04:53;46.99;32.78;57.16;;
58303;Laerm;44109;52.398;7.024;2023-07-13T00:07:21;46.89;32.82;57.07;;
58303;Laerm;44109;52.398;7.024;2023-07-13T00:09:50;46.86;32.66;57.21;;
58303;Laerm;44109;52.398;7.024;2023-07-13T00:12:27;46.60;32.57;57.06;;
58303;Laerm;44109;52.398;7.024;2023-07-13T00:14:57;46.56;32.51;56.90;;
58303;Laerm;44109;52.398;7.024;2023-07-13T00:17:27;46.69;32.45;57.15;;
58303;Laerm;44109;52.398;7.024;2023-07-13T00:19:56;46.84;33.79;57.35;;
58303;Laerm;44109;52.398;7.024;2023-07-13T00:22:25;47.05;33.25;56.98;;
58303;Laerm;44109;52.398;7.024;2023-07-13T00:24:53;46.89;32.80;57.22;;
58303;Laerm;44109;52.398;7.024;2023-07-13T00:27:25;47.10;32.82;57.15;;
58303;Laerm;44109;52.398;7.024;2023-07-13T00:29:53;47.13;32.81;57.47;;
58303;Laerm;44109;52.398;7.024;2023-07-13T00:32:20;47.09;33.38;57.25;;
58303;Laerm;44109;52.398;7.024;2023-07-13T00:34:48;47.03;32.97;56.94;;
58303;Laerm;44109;52.398;7.024;2023-07-13T00:37:16;46.98;32.53;57.25;;
58303;Laerm;44109;52.398;7.024;2023-07-13T00:39:43;47.15;33.63;57.29;;
58303;Laerm;44109;52.398;7.024;2023-07-13T00:42:11;46.93;32.62;56.90;;
58303;Laerm;44109;52.398;7.024;2023-07-13T00:44:40;46.69;32.65;57.18;;
58303;Laerm;44109;52.398;7.024;2023-07-13T00:47:07;46.82;33.19;57.06;;
58303;Laerm;44109;52.398;7.024;2023-07-13T00:49:37;46.77;32.56;57.26;;
58303;Laerm;44109;52.398;7.024;2023-07-13T00:52:08;46.57;32.90;57.52;;
58303;Laerm;44109;52.398;7.024;2023-07-13T00:54:40;46.60;33.02;57.19;;
58303;Laerm;44109;52.398;7.024;2023-07-13T00:57:14;46.47;33.01;57.58;;
58303;Laerm;44109;52.398;7.024;2023-07-13T00:59:48;46.47;32.64;57.24;;
58303;Laerm;44109;52.398;7.024;2023-07-13T01:02:16;46.32;32.90;56.78;;
58303;Laerm;44109;52.398;7.024;2023-07-13T01:04:44;46.52;32.56;56.89;;
58303;Laerm;44109;52.398;7.024;2023-07-13T01:07:13;46.82;32.23;57.51;;
58303;Laerm;44109;52.398;7.024;2023-07-13T01:09:41;46.56;32.59;57.01;;
58303;Laerm;44109;52.398;7.024;2023-07-13T01:12:09;46.62;32.68;56.85;;
58303;Laerm;44109;52.398;7.024;2023-07-13T01:14:37;46.57;32.80;57.17;;
58303;Laerm;44109;52.398;7.024;2023-07-13T01:17:10;46.36;32.50;56.76;;
58303;Laerm;44109;52.398;7.024;2023-07-13T01:19:42;45.96;32.95;56.54;;
58303;Laerm;44109;52.398;7.024;2023-07-13T01:22:14;46.27;33.15;56.56;;
58303;Laerm;44109;52.398;7.024;2023-07-13T01:24:45;46.38;32.66;56.69;;
58303;Laerm;44109;52.398;7.024;2023-07-13T01:27:19;46.29;32.76;56.56;;
58303;Laerm;44109;52.398;7.024;2023-07-13T01:29:47;46.37;31.93;61.23;;
58303;Laerm;44109;52.398;7.024;2023-07-13T01:32:20;46.27;32.45;56.56;;
58303;Laerm;44109;52.398;7.024;2023-07-13T01:34:51;45.90;32.08;56.24;;
58303;Laerm;44109;52.398;7.024;2023-07-13T01:37:22;46.07;32.76;56.46;;
58303;Laerm;44109;52.398;7.024;2023-07-13T01:39:50;46.26;33.15;56.44;;
58303;Laerm;44109;52.398;7.024;2023-07-13T01:42:18;46.21;32.47;56.65;;
58303;Laerm;44109;52.398;7.024;2023-07-13T01:44:45;46.27;32.91;56.74;;
58303;Laerm;44109;52.398;7.024;2023-07-13T01:47:13;46.50;32.79;57.03;;
58303;Laerm;44109;52.398;7.024;2023-07-13T01:49:41;46.29;32.54;56.61;;
58303;Laerm;44109;52.398;7.024;2023-07-13T01:52:08;46.29;32.94;57.33;;
58303;Laerm;44109;52.398;7.024;2023-07-13T01:54:37;46.26;32.28;56.79;;
58303;Laerm;44109;52.398;7.024;2023-07-13T01:57:05;46.39;33.19;56.87;;
58303;Laerm;44109;52.398;7.024;2023-07-13T01:59:33;46.55;33.34;57.28;;
58303;Laerm;44109;52.398;7.024;2023-07-13T02:02:00;46.58;32.77;56.91;;
58303;Laerm;44109;52.398;7.024;2023-07-13T02:04:28;46.79;33.79;57.11;;
58303;Laerm;44109;52.398;7.024;2023-07-13T02:06:55;46.83;33.34;56.97;;
58303;Laerm;44109;52.398;7.024;2023-07-13T02:09:23;46.91;33.17;56.95;;
58303;Laerm;44109;52.398;7.024;2023-07-13T02:11:52;46.78;32.97;56.80;;
58303;Laerm;44109;52.398;7.024;2023-07-13T02:14:19;46.67;32.81;56.87;;
58303;Laerm;44109;52.398;7.024;2023-07-13T02:16:47;46.65;32.39;57.16;;
58303;Laerm;44109;52.398;7.024;2023-07-13T02:19:15;46.56;32.95;56.94;;
58303;Laerm;44109;52.398;7.024;2023-07-13T02:21:43;46.59;32.98;57.04;;
58303;Laerm;44109;52.398;7.024;2023-07-13T02:24:10;46.55;32.70;57.07;;
58303;Laerm;44109;52.398;7.024;2023-07-13T02:26:43;45.93;33.07;56.86;;
58303;Laerm;44109;52.398;7.024;2023-07-13T02:29:12;46.94;34.66;56.76;;
58303;Laerm;44109;52.398;7.024;2023-07-13T02:31:40;46.65;33.86;56.66;;
58303;Laerm;44109;52.398;7.024;2023-07-13T02:34:08;47.16;33.30;56.75;;
58303;Laerm;44109;52.398;7.024;2023-07-13T02:36:35;46.52;33.22;56.72;;
58303;Laerm;44109;52.398;7.024;2023-07-13T02:39:05;50.19;33.78;72.34;;
58303;Laerm;44109;52.398;7.024;2023-07-13T02:41:33;51.08;33.44;72.51;;
58303;Laerm;44109;52.398;7.024;2023-07-13T02:44:02;56.12;34.30;76.35;;
58303;Laerm;44109;52.398;7.024;2023-07-13T02:46:32;46.91;33.95;58.25;;
58303;Laerm;44109;52.398;7.024;2023-07-13T02:49:00;49.58;33.89;71.70;;
58303;Laerm;44109;52.398;7.024;2023-07-13T02:51:27;49.23;33.46;71.18;;
58303;Laerm;44109;52.398;7.024;2023-07-13T02:53:55;46.65;34.38;56.77;;
58303;Laerm;44109;52.398;7.024;2023-07-13T02:56:27;46.35;33.62;56.59;;
58303;Laerm;44109;52.398;7.024;2023-07-13T02:58:55;50.01;34.15;70.25;;
58303;Laerm;44109;52.398;7.024;2023-07-13T03:01:23;55.72;34.68;72.16;;
58303;Laerm;44109;52.398;7.024;2023-07-13T03:03:52;47.61;34.16;58.78;;
58303;Laerm;44109;52.398;7.024;2023-07-13T03:06:20;47.71;33.78;60.21;;
58303;Laerm;44109;52.398;7.024;2023-07-13T03:08:49;49.91;34.24;65.74;;
58303;Laerm;44109;52.398;7.024;2023-07-13T03:11:19;48.69;34.07;64.73;;
58303;Laerm;44109;52.398;7.024;2023-07-13T03:13:47;48.64;34.69;61.71;;
58303;Laerm;44109;52.398;7.024;2023-07-13T03:16:16;50.84;34.91;67.79;;
58303;Laerm;44109;52.398;7.024;2023-07-13T03:18:45;48.19;36.17;58.31;;
58303;Laerm;44109;52.398;7.024;2023-07-13T03:21:15;47.97;33.85;58.19;;
58303;Laerm;44109;52.398;7.024;2023-07-13T03:23:43;50.08;33.14;76.98;;
58303;Laerm;44109;52.398;7.024;2023-07-13T03:26:16;48.60;35.05;62.31;;
58303;Laerm;44109;52.398;7.024;2023-07-13T03:28:45;49.06;34.33;63.59;;
58303;Laerm;44109;52.398;7.024;2023-07-13T03:31:18;53.29;36.56;74.28;;
58303;Laerm;44109;52.398;7.024;2023-07-13T03:33:47;56.63;36.00;72.83;;
58303;Laerm;44109;52.398;7.024;2023-07-13T03:36:19;53.82;33.68;72.53;;
58303;Laerm;44109;52.398;7.024;2023-07-13T03:38:49;50.92;35.62;63.34;;
58303;Laerm;44109;52.398;7.024;2023-07-13T03:41:17;50.95;34.67;65.48;;
58303;Laerm;44109;52.398;7.024;2023-07-13T03:43:45;51.75;34.94;64.51;;
58303;Laerm;44109;52.398;7.024;2023-07-13T03:46:15;48.67;35.19;61.24;;
58303;Laerm;44109;52.398;7.024;2023-07-13T03:48:46;47.99;34.36;57.78;;
58303;Laerm;44109;52.398;7.024;2023-07-13T03:51:16;52.86;34.53;76.82;;
58303;Laerm;44109;52.398;7.024;2023-07-13T03:53:47;47.30;34.08;58.55;;
58303;Laerm;44109;52.398;7.024;2023-07-13T03:56:16;48.15;35.29;59.75;;
58303;Laerm;44109;52.398;7.024;2023-07-13T03:58:46;47.78;34.90;56.90;;
58303;Laerm;44109;52.398;7.024;2023-07-13T04:01:17;47.88;35.77;57.08;;
58303;Laerm;44109;52.398;7.024;2023-07-13T04:03:45;47.92;35.19;57.93;;
58303;Laerm;44109;52.398;7.024;2023-07-13T04:06:18;48.04;35.77;57.46;;
58303;Laerm;44109;52.398;7.024;2023-07-13T04:08:49;48.20;37.26;57.84;;
58303;Laerm;44109;52.398;7.024;2023-07-13T04:11:18;48.33;34.35;57.25;;
58303;Laerm;44109;52.398;7.024;2023-07-13T04:13:47;48.40;38.11;59.85;;
58303;Laerm;44109;52.398;7.024;2023-07-13T04:16:16;49.21;37.47;60.65;;
58303;Laerm;44109;52.398;7.024;2023-07-13T04:18:45;52.45;37.32;64.55;;
58303;Laerm;44109;52.398;7.024;2023-07-13T04:21:14;53.14;38.54;74.49;;
58303;Laerm;44109;52.398;7.024;2023-07-13T04:23:43;49.77;39.13;57.88;;
58303;Laerm;44109;52.398;7.024;2023-07-13T04:26:10;54.43;36.60;69.45;;
58303;Laerm;44109;52.398;7.024;2023-07-13T04:28:38;53.82;36.66;68.98;;
58303;Laerm;44109;52.398;7.024;2023-07-13T04:31:06;48.18;35.39;58.00;;
58303;Laerm;44109;52.398;7.024;2023-07-13T04:33:33;50.39;36.09;67.24;;
58303;Laerm;44109;52.398;7.024;2023-07-13T04:36:01;52.37;37.46;70.10;;
58303;Laerm;44109;52.398;7.024;2023-07-13T04:38:31;50.24;36.10;64.49;;
58303;Laerm;44109;52.398;7.024;2023-07-13T04:41:03;48.37;35.84;59.98;;
58303;Laerm;44109;52.398;7.024;2023-07-13T04:43:32;51.19;36.36;73.59;;
58303;Laerm;44109;52.398;7.024;2023-07-13T04:46:04;49.16;38.58;60.82;;
58303;Laerm;44109;52.398;7.024;2023-07-13T04:48:33;48.92;37.43;63.77;;
58303;Laerm;44109;52.398;7.024;2023-07-13T04:51:01;48.48;37.49;61.24;;
58303;Laerm;44109;52.398;7.024;2023-07-13T04:53:30;49.00;37.31;57.87;;
58303;Laerm;44109;52.398;7.024;2023-07-13T04:56:00;49.08;37.89;69.46;;
58303;Laerm;44109;52.398;7.024;2023-07-13T04:58:28;48.54;38.38;59.80;;
58303;Laerm;44109;52.398;7.024;2023-07-13T05:01:00;49.57;39.28;61.27;;
58303;Laerm;44109;52.398;7.024;2023-07-13T05:03:28;48.40;36.28;57.80;;
58303;Laerm;44109;52.398;7.024;2023-07-13T05:05:57;48.63;36.35;58.86;;
58303;Laerm;44109;52.398;7.024;2023-07-13T05:08:25;48.58;36.94;58.18;;
58303;Laerm;44109;52.398;7.024;2023-07-13T05:10:53;48.79;36.43;68.22;;
58303;Laerm;44109;52.398;7.024;2023-07-13T05:13:22;49.32;38.43;59.76;;
58303;Laerm;44109;52.398;7.024;2023-07-13T05:15:57;49.83;39.07;63.38;;
58303;Laerm;44109;52.398;7.024;2023-07-13T05:18:25;48.78;37.82;57.57;;
58303;Laerm;44109;52.398;7.024;2023-07-13T05:21:01;48.59;37.31;60.85;;
58303;Laerm;44109;52.398;7.024;2023-07-13T05:23:31;48.60;38.18;57.85;;
58303;Laerm;44109;52.398;7.024;2023-07-13T05:26:00;49.05;38.76;57.54;;
58303;Laerm;44109;52.398;7.024;2023-07-13T05:28:31;54.92;41.07;72.67;;
58303;Laerm;44109;52.398;7.024;2023-07-13T05:30:59;50.32;40.26;63.19;;
58303;Laerm;44109;52.398;7.024;2023-07-13T05:33:27;52.75;38.93;78.58;;
58303;Laerm;44109;52.398;7.024;2023-07-13T05:35:55;54.44;38.43;72.39;;
58303;Laerm;44109;52.398;7.024;2023-07-13T05:38:22;52.89;37.58;68.59;;
58303;Laerm;44109;52.398;7.024;2023-07-13T05:40:50;50.89;38.93;66.66;;
58303;Laerm;44109;52.398;7.024;2023-07-13T05:43:18;51.30;37.42;69.54;;
58303;Laerm;44109;52.398;7.024;2023-07-13T05:45:47;50.87;39.60;66.01;;
58303;Laerm;44109;52.398;7.024;2023-07-13T05:48:15;52.34;40.06;71.70;;
58303;Laerm;44109;52.398;7.024;2023-07-13T05:50:42;54.04;37.53;69.54;;
58303;Laerm;44109;52.398;7.024;2023-07-13T05:53:11;52.20;39.80;64.58;;
58303;Laerm;44109;52.398;7.024;2023-07-13T05:55:41;53.07;38.75;75.98;;
58303;Laerm;44109;52.398;7.024;2023-07-13T05:58:11;51.75;39.69;66.57;;
58303;Laerm;44109;52.398;7.024;2023-07-13T06:00:38;51.08;39.83;66.53;;
58303;Laerm;44109;52.398;7.024;2023-07-13T06:03:07;50.98;39.19;70.64;;
58303;Laerm;44109;52.398;7.024;2023-07-13T06:05:36;50.13;37.25;62.08;;
58303;Laerm;44109;52.398;7.024;2023-07-13T06:08:06;50.67;39.24;62.22;;
58303;Laerm;44109;52.398;7.024;2023-07-13T06:10:35;50.28;40.84;65.47;;
58303;Laerm;44109;52.398;7.024;2023-07-13T06:13:03;51.44;39.37;69.74;;
58303;Laerm;44109;52.398;7.024;2023-07-13T06:15:31;49.77;40.08;64.30;;
58303;Laerm;44109;52.398;7.024;2023-07-13T06:17:58;50.39;40.02;70.39;;
58303;Laerm;44109;52.398;7.024;2023-07-13T06:20:28;50.18;42.27;65.83;;
58303;Laerm;44109;52.398;7.024;2023-07-13T06:22:55;50.62;40.91;63.38;;
58303;Laerm;44109;52.398;7.024;2023-07-13T06:25:23;51.06;37.88;60.27;;
58303;Laerm;44109;52.398;7.024;2023-07-13T06:27:50;51.44;39.86;65.67;;
58303;Laerm;44109;52.398;7.024;2023-07-13T06:30:18;54.95;39.28;72.46;;
58303;Laerm;44109;52.398;7.024;2023-07-13T06:32:46;52.56;39.35;69.81;;
58303;Laerm;44109;52.398;7.024;2023-07-13T06:35:14;49.39;38.49;59.75;;
58303;Laerm;44109;52.398;7.024;2023-07-13T06:37:42;49.78;40.09;65.33;;
58303;Laerm;44109;52.398;7.024;2023-07-13T06:40:11;49.61;39.79;65.75;;
58303;Laerm;44109;52.398;7.024;2023-07-13T06:42:39;49.97;39.57;60.71;;
58303;Laerm;44109;52.398;7.024;2023-07-13T06:45:07;50.69;39.10;70.59;;
58303;Laerm;44109;52.398;7.024;2023-07-13T06:47:35;50.81;39.60;67.24;;
58303;Laerm;44109;52.398;7.024;2023-07-13T06:50:03;50.37;39.86;65.73;;
58303;Laerm;44109;52.398;7.024;2023-07-13T06:52:30;50.59;41.72;63.93;;
58303;Laerm;44109;52.398;7.024;2023-07-13T06:54:59;49.76;40.92;62.13;;
58303;Laerm;44109;52.398;7.024;2023-07-13T06:57:27;50.00;38.97;62.24;;
58303;Laerm;44109;52.398;7.024;2023-07-13T06:59:54;51.23;42.21;65.88;;
58303;Laerm;44109;52.398;7.024;2023-07-13T07:02:22;51.44;41.02;67.66;;
58303;Laerm;44109;52.398;7.024;2023-07-13T07:04:50;48.90;38.83;60.30;;
58303;Laerm;44109;52.398;7.024;2023-07-13T07:07:17;53.12;37.08;78.02;;
58303;Laerm;44109;52.398;7.024;2023-07-13T07:09:45;50.03;37.52;71.89;;
58303;Laerm;44109;52.398;7.024;2023-07-13T07:12:14;50.41;40.28;63.96;;
58303;Laerm;44109;52.398;7.024;2023-07-13T07:14:42;49.23;38.37;60.92;;
58303;Laerm;44109;52.398;7.024;2023-07-13T07:17:09;50.36;37.80;65.94;;
58303;Laerm;44109;52.398;7.024;2023-07-13T07:19:37;52.22;39.56;77.13;;
58303;Laerm;44109;52.398;7.024;2023-07-13T07:22:05;50.95;39.17;63.21;;
58303;Laerm;44109;52.398;7.024;2023-07-13T07:24:33;49.62;38.67;61.31;;
58303;Laerm;44109;52.398;7.024;2023-07-13T07:27:00;51.32;42.82;63.41;;
58303;Laerm;44109;52.398;7.024;2023-07-13T07:29:29;50.00;39.02;71.61;;
58303;Laerm;44109;52.398;7.024;2023-07-13T07:31:58;50.15;38.91;71.63;;
58303;Laerm;44109;52.398;7.024;2023-07-13T07:34:26;49.93;39.91;61.31;;
58303;Laerm;44109;52.398;7.024;2023-07-13T07:36:54;52.07;40.59;63.04;;
58303;Laerm;44109;52.398;7.024;2023-07-13T07:39:22;51.76;40.03;69.15;;
58303;Laerm;44109;52.398;7.024;2023-07-13T07:41:50;52.42;37.95;76.63;;
58303;Laerm;44109;52.398;7.024;2023-07-13T07:44:17;50.69;39.13;69.75;;
58303;Laerm;44109;52.398;7.024;2023-07-13T07:46:46;50.17;40.51;63.54;;
58303;Laerm;44109;52.398;7.024;2023-07-13T07:49:14;50.60;39.52;67.41;;
58303;Laerm;44109;52.398;7.024;2023-07-13T07:51:42;51.85;46.39;63.39;;
58303;Laerm;44109;52.398;7.024;2023-07-13T07:54:10;51.32;39.37;63.32;;
58303;Laerm;44109;52.398;7.024;2023-07-13T07:56:37;49.34;40.48;59.27;;
58303;Laerm;44109;52.398;7.024;2023-07-13T07:59:05;49.74;39.08;64.24;;
58303;Laerm;44109;52.398;7.024;2023-07-13T08:01:33;51.40;39.35;65.07;;
58303;Laerm;44109;52.398;7.024;2023-07-13T08:04:02;49.85;38.22;68.13;;
58303;Laerm;44109;52.398;7.024;2023-07-13T08:06:31;51.70;40.61;74.58;;
58303;Laerm;44109;52.398;7.024;2023-07-13T08:08:59;50.68;42.08;67.31;;
58303;Laerm;44109;52.398;7.024;2023-07-13T08:11:27;50.32;41.46;70.07;;
58303;Laerm;44109;52.398;7.024;2023-07-13T08:13:55;50.55;40.05;72.26;;
58303;Laerm;44109;52.398;7.024;2023-07-13T08:16:23;49.84;40.14;67.29;;
58303;Laerm;44109;52.398;7.024;2023-07-13T08:18:51;50.63;39.49;71.88;;
58303;Laerm;44109;52.398;7.024;2023-07-13T08:21:20;50.45;38.90;66.99;;
58303;Laerm;44109;52.398;7.024;2023-07-13T08:23:48;51.21;41.35;62.16;;
58303;Laerm;44109;52.398;7.024;2023-07-13T08:26:15;50.23;40.27;61.88;;
58303;Laerm;44109;52.398;7.024;2023-07-13T08:28:43;51.45;39.34;65.08;;
58303;Laerm;44109;52.398;7.024;2023-07-13T08:31:11;50.07;41.46;62.21;;
58303;Laerm;44109;52.398;7.024;2023-07-13T08:33:38;50.10;40.76;59.47;;
58303;Laerm;44109;52.398;7.024;2023-07-13T08:36:07;51.05;41.32;62.97;;
58303;Laerm;44109;52.398;7.024;2023-07-13T08:38:36;49.83;41.56;66.01;;
58303;Laerm;44109;52.398;7.024;2023-07-13T08:41:12;49.99;41.85;58.59;;
58303;Laerm;44109;52.398;7.024;2023-07-13T08:43:44;51.13;44.57;60.20;;
58303;Laerm;44109;52.398;7.024;2023-07-13T08:46:18;50.35;42.92;58.50;;
58303;Laerm;44109;52.398;7.024;2023-07-13T08:48:52;49.98;42.52;61.56;;
58303;Laerm;44109;52.398;7.024;2023-07-13T08:51:33;49.82;40.87;63.02;;
58303;Laerm;44109;52.398;7.024;2023-07-13T08:54:18;50.07;41.68;61.41;;
58303;Laerm;44109;52.398;7.024;2023-07-13T08:56:47;51.31;42.96;58.34;;
58303;Laerm;44109;52.398;7.024;2023-07-13T08:59:24;50.47;40.36;64.95;;
58303;Laerm;44109;52.398;7.024;2023-07-13T09:02:15;51.86;43.87;61.25;;
58303;Laerm;44109;52.398;7.024;2023-07-13T09:04:50;51.14;42.84;63.16;;
58303;Laerm;44109;52.398;7.024;2023-07-13T09:07:33;51.13;44.14;60.08;;
58303;Laerm;44109;52.398;7.024;2023-07-13T09:10:15;51.90;43.25;68.78;;
58303;Laerm;44109;52.398;7.024;2023-07-13T09:13:05;50.83;43.39;64.58;;
58303;Laerm;44109;52.398;7.024;2023-07-13T09:15:40;50.88;42.68;62.01;;
58303;Laerm;44109;52.398;7.024;2023-07-13T09:18:18;51.43;44.20;63.62;;
58303;Laerm;44109;52.398;7.024;2023-07-13T09:20:52;53.19;42.46;63.99;;
58303;Laerm;44109;52.398;7.024;2023-07-13T09:23:24;51.04;42.19;66.85;;
58303;Laerm;44109;52.398;7.024;2023-07-13T09:26:08;50.83;42.37;68.07;;
58303;Laerm;44109;52.398;7.024;2023-07-13T09:28:41;48.44;44.04;68.82;;
58303;Laerm;44109;52.398;7.024;2023-07-13T09:31:14;51.77;42.96;68.13;;
58303;Laerm;44109;52.398;7.024;2023-07-13T09:33:43;51.11;43.85;60.42;;
58303;Laerm;44109;52.398;7.024;2023-07-13T09:36:21;49.92;41.18;60.79;;
58303;Laerm;44109;52.398;7.024;2023-07-13T09:39:03;51.37;44.49;68.37;;
58303;Laerm;44109;52.398;7.024;2023-07-13T09:41:41;51.87;43.62;62.20;;
58303;Laerm;44109;52.398;7.024;2023-07-13T09:44:16;52.68;45.50;66.44;;
58303;Laerm;44109;52.398;7.024;2023-07-13T09:46:47;50.99;44.28;64.90;;
58303;Laerm;44109;52.398;7.024;2023-07-13T09:49:24;51.27;45.80;59.11;;
58303;Laerm;44109;52.398;7.024;2023-07-13T09:52:00;52.84;45.91;60.80;;
58303;Laerm;44109;52.398;7.024;2023-07-13T09:54:28;52.19;47.06;62.57;;
58303;Laerm;44109;52.398;7.024;2023-07-13T09:57:00;50.64;43.19;58.57;;
58303;Laerm;44109;52.398;7.024;2023-07-13T09:59:32;50.76;42.13;64.74;;
58303;Laerm;44109;52.398;7.024;2023-07-13T10:02:01;50.66;43.56;59.28;;
58303;Laerm;44109;52.398;7.024;2023-07-13T10:04:33;49.78;41.44;58.72;;
58303;Laerm;44109;52.398;7.024;2023-07-13T10:07:06;50.85;41.30;63.00;;
58303;Laerm;44109;52.398;7.024;2023-07-13T10:09:34;60.03;47.02;89.02;;
58303;Laerm;44109;52.398;7.024;2023-07-13T10:12:13;71.96;53.23;100.62;;
58303;Laerm;44109;52.398;7.024;2023-07-13T10:14:43;77.72;47.94;101.27;;
58303;Laerm;44109;52.398;7.024;2023-07-13T10:17:14;67.27;44.77;99.35;;
58303;Laerm;44109;52.398;7.024;2023-07-13T10:19:42;66.09;44.09;98.48;;
58303;Laerm;44109;52.398;7.024;2023-07-13T10:22:25;66.87;40.55;101.10;;
58303;Laerm;44109;52.398;7.024;2023-07-13T10:24:55;59.39;41.90;90.99;;
58303;Laerm;44109;52.398;7.024;2023-07-13T10:27:33;50.63;40.74;75.74;;
58303;Laerm;44109;52.398;7.024;2023-07-13T10:30:12;49.88;39.91;64.61;;
58303;Laerm;44109;52.398;7.024;2023-07-13T10:32:41;57.05;41.89;87.14;;
58303;Laerm;44109;52.398;7.024;2023-07-13T10:35:14;50.88;38.60;77.02;;
58303;Laerm;44109;52.398;7.024;2023-07-13T10:37:51;62.98;41.27;98.14;;
58303;Laerm;44109;52.398;7.024;2023-07-13T10:40:28;51.32;41.32;81.86;;
58303;Laerm;44109;52.398;7.024;2023-07-13T10:43:05;54.04;42.60;85.69;;
58303;Laerm;44109;52.398;7.024;2023-07-13T10:45:36;54.31;43.42;84.81;;
58303;Laerm;44109;52.398;7.024;2023-07-13T10:48:09;51.83;43.69;68.27;;
58303;Laerm;44109;52.398;7.024;2023-07-13T10:50:43;55.36;44.87;83.41;;
58303;Laerm;44109;52.398;7.024;2023-07-13T10:53:21;52.91;44.44;76.49;;
58303;Laerm;44109;52.398;7.024;2023-07-13T10:55:59;51.33;42.16;75.35;;
58303;Laerm;44109;52.398;7.024;2023-07-13T10:58:34;59.76;44.39;91.77;;
58303;Laerm;44109;52.398;7.024;2023-07-13T11:01:08;52.19;44.59;64.27;;
58303;Laerm;44109;52.398;7.024;2023-07-13T11:03:47;51.97;43.40;59.85;;
58303;Laerm;44109;52.398;7.024;2023-07-13T11:06:34;52.88;43.38;63.08;;
58303;Laerm;44109;52.398;7.024;2023-07-13T11:09:37;54.17;45.39;78.09;;
58303;Laerm;44109;52.398;7.024;2023-07-13T11:12:27;57.70;43.45;84.73;;
58303;Laerm;44109;52.398;7.024;2023-07-13T11:15:09;62.06;52.01;84.69;;
58303;Laerm;44109;52.398;7.024;2023-07-13T11:17:49;59.53;44.98;93.88;;
58303;Laerm;44109;52.398;7.024;2023-07-13T11:20:31;60.27;47.06;90.99;;
58303;Laerm;44109;52.398;7.024;2023-07-13T11:23:30;53.59;41.07;79.17;;
58303;Laerm;44109;52.398;7.024;2023-07-13T11:26:00;63.70;43.65;91.36;;
58303;Laerm;44109;52.398;7.024;2023-07-13T11:28:31;64.39;38.95;97.96;;
58303;Laerm;44109;52.398;7.024;2023-07-13T11:31:15;52.95;38.35;85.16;;
58303;Laerm;44109;52.398;7.024;2023-07-13T11:33:56;67.04;38.86;102.05;;
58303;Laerm;44109;52.398;7.024;2023-07-13T11:36:32;50.28;39.47;70.90;;
58303;Laerm;44109;52.398;7.024;2023-07-13T11:39:14;49.65;37.68;66.51;;
58303;Laerm;44109;52.398;7.024;2023-07-13T11:41:49;50.22;36.38;80.88;;
58303;Laerm;44109;52.398;7.024;2023-07-13T11:44:20;48.66;36.48;58.25;;
58303;Laerm;44109;52.398;7.024;2023-07-13T11:46:52;50.45;37.32;79.33;;
58303;Laerm;44109;52.398;7.024;2023-07-13T11:49:23;48.57;36.44;58.21;;
58303;Laerm;44109;52.398;7.024;2023-07-13T11:51:53;48.73;37.37;60.33;;
58303;Laerm;44109;52.398;7.024;2023-07-13T11:54:27;49.86;39.72;66.32;;
58303;Laerm;44109;52.398;7.024;2023-07-13T11:56:59;49.63;39.62;74.42;;
58303;Laerm;44109;52.398;7.024;2023-07-13T11:59:30;48.69;37.87;58.24;;
58303;Laerm;44109;52.398;7.024;2023-07-13T12:02:00;49.76;38.55;74.27;;
58303;Laerm;44109;52.398;7.024;2023-07-13T12:04:32;49.01;39.94;65.31;;
58303;Laerm;44109;52.398;7.024;2023-07-13T12:07:06;50.61;37.59;73.37;;
58303;Laerm;44109;52.398;7.024;2023-07-13T12:09:35;48.85;39.88;58.09;;
58303;Laerm;44109;52.398;7.024;2023-07-13T12:12:10;48.62;37.26;62.66;;
58303;Laerm;44109;52.398;7.024;2023-07-13T12:14:39;48.51;35.86;66.54;;
58303;Laerm;44109;52.398;7.024;2023-07-13T12:17:15;64.12;44.53;90.60;;
58303;Laerm;44109;52.398;7.024;2023-07-13T12:19:43;75.45;56.45;100.99;;
58303;Laerm;44109;52.398;7.024;2023-07-13T12:22:13;85.63;57.56;105.47;;
58303;Laerm;44109;52.398;7.024;2023-07-13T12:24:43;75.24;43.43;100.52;;
58303;Laerm;44109;52.398;7.024;2023-07-13T12:27:20;70.07;39.20;102.48;;
58303;Laerm;44109;52.398;7.024;2023-07-13T12:29:51;70.13;37.94;105.49;;
58303;Laerm;44109;52.398;7.024;2023-07-13T12:32:24;54.20;39.07;85.01;;
58303;Laerm;44109;52.398;7.024;2023-07-13T12:34:55;59.05;39.19;92.86;;
58303;Laerm;44109;52.398;7.024;2023-07-13T12:37:23;49.84;37.28;72.10;;
58303;Laerm;44109;52.398;7.024;2023-07-13T12:39:52;55.52;36.15;82.53;;
58303;Laerm;44109;52.398;7.024;2023-07-13T12:42:24;50.12;35.69;72.50;;
58303;Laerm;44109;52.398;7.024;2023-07-13T12:44:58;64.52;35.80;99.82;;
58303;Laerm;44109;52.398;7.024;2023-07-13T12:47:29;67.00;37.76;100.64;;
58303;Laerm;44109;52.398;7.024;2023-07-13T12:49:59;50.76;37.71;74.91;;
58303;Laerm;44109;52.398;7.024;2023-07-13T12:52:31;50.75;37.02;70.63;;
58303;Laerm;44109;52.398;7.024;2023-07-13T12:55:05;68.43;38.70;101.22;;
58303;Laerm;44109;52.398;7.024;2023-07-13T12:57:41;90.41;48.84;110.49;;
58303;Laerm;44109;52.398;7.024;2023-07-13T13:00:23;84.85;56.82;108.08;;
58303;Laerm;44109;52.398;7.024;2023-07-13T13:02:57;78.52;51.24;105.35;;
58303;Laerm;44109;52.398;7.024;2023-07-13T13:05:27;72.33;43.01;105.68;;
58303;Laerm;44109;52.398;7.024;2023-07-13T13:07:54;69.71;40.45;104.67;;
58303;Laerm;44109;52.398;7.024;2023-07-13T13:10:22;70.31;38.60;103.35;;
58303;Laerm;44109;52.398;7.024;2023-07-13T13:12:51;71.75;39.41;97.31;;
58303;Laerm;44109;52.398;7.024;2023-07-13T13:15:19;78.77;54.18;104.89;;
58303;Laerm;44109;52.398;7.024;2023-07-13T13:17:48;79.11;56.70;106.00;;
58303;Laerm;44109;52.398;7.024;2023-07-13T13:20:20;78.05;53.34;101.56;;
58303;Laerm;44109;52.398;7.024;2023-07-13T13:22:49;76.67;51.77;103.73;;
58303;Laerm;44109;52.398;7.024;2023-07-13T13:25:19;71.61;48.40;100.65;;
58303;Laerm;44109;52.398;7.024;2023-07-13T13:27:47;66.40;46.85;97.85;;
58303;Laerm;44109;52.398;7.024;2023-07-13T13:30:17;66.48;41.15;98.54;;
58303;Laerm;44109;52.398;7.024;2023-07-13T13:32:47;64.07;41.23;99.78;;
58303;Laerm;44109;52.398;7.024;2023-07-13T13:35:19;63.89;40.68;98.59;;
58303;Laerm;44109;52.398;7.024;2023-07-13T13:37:47;55.23;42.83;80.27;;
58303;Laerm;44109;52.398;7.024;2023-07-13T13:40:18;62.72;44.69;94.65;;
58303;Laerm;44109;52.398;7.024;2023-07-13T13:42:47;60.83;44.46;92.26;;
58303;Laerm;44109;52.398;7.024;2023-07-13T13:45:15;60.78;44.59;93.83;;
58303;Laerm;44109;52.398;7.024;2023-07-13T13:47:44;56.37;42.39;88.35;;
58303;Laerm;44109;52.398;7.024;2023-07-13T13:50:20;62.21;41.05;96.96;;
58303;Laerm;44109;52.398;7.024;2023-07-13T13:52:48;53.77;40.72;81.85;;
58303;Laerm;44109;52.398;7.024;2023-07-13T13:55:19;64.14;40.28;97.26;;
58303;Laerm;44109;52.398;7.024;2023-07-13T13:57:48;57.76;38.58;92.57;;
58303;Laerm;44109;52.398;7.024;2023-07-13T14:00:17;49.62;38.55;72.25;;
58303;Laerm;44109;52.398;7.024;2023-07-13T14:02:47;51.44;37.71;78.54;;
58303;Laerm;44109;52.398;7.024;2023-07-13T14:05:23;49.55;37.92;72.75;;